createdAt,value
2019-02-19T00:00:53.016Z,0.00
2019-02-19T00:01:52.023Z,0.00
2019-02-19T00:05:09.523Z,0.00
2019-02-19T00:06:03.151Z,0.00
2019-02-19T00:07:03.241Z,0.00
2019-02-19T00:08:04.813Z,0.00
2019-02-19T00:09:03.124Z,0.00
2019-02-19T00:10:03.031Z,0.00
2019-02-19T00:11:21.615Z,0.00
2019-02-19T00:13:04.013Z,0.00
2019-02-19T00:15:08.368Z,0.00
2019-02-19T00:16:03.583Z,0.00
2019-02-19T00:17:02.903Z,0.00
2019-02-19T00:18:04.595Z,0.00
2019-02-19T00:19:02.831Z,0.00
2019-02-19T00:20:04.525Z,0.00
2019-02-19T00:21:02.699Z,0.00
2019-02-19T00:22:03.079Z,0.00
2019-02-19T00:23:02.818Z,0.00
2019-02-19T00:24:03.029Z,0.00
2019-02-19T00:25:03.443Z,0.00
2019-02-19T00:26:02.768Z,0.00
2019-02-19T00:27:09.438Z,0.00
2019-02-19T00:28:04.627Z,0.00
2019-02-19T00:29:02.816Z,0.00
2019-02-19T00:30:07.443Z,0.00
2019-02-19T00:31:03.349Z,0.00
2019-02-19T00:32:05.536Z,0.00
2019-02-19T00:33:05.467Z,0.00
2019-02-19T00:34:03.657Z,0.00
2019-02-19T00:35:02.726Z,0.00
2019-02-19T00:36:04.906Z,0.00
2019-02-19T00:37:09.481Z,0.00
2019-02-19T00:38:02.734Z,0.00
2019-02-19T00:39:02.495Z,0.00
2019-02-19T00:40:03.148Z,0.00
2019-02-19T00:41:02.535Z,0.00
2019-02-19T00:42:02.487Z,0.00
2019-02-19T00:43:02.450Z,0.00
2019-02-19T00:44:02.395Z,0.00
2019-02-19T00:45:02.231Z,0.00
2019-02-19T00:46:02.318Z,0.00
2019-02-19T00:47:02.411Z,0.00
2019-02-19T00:48:02.496Z,0.00
2019-02-19T00:49:02.387Z,0.00
2019-02-19T00:50:02.323Z,0.00
2019-02-19T00:51:03.896Z,0.00
2019-02-19T00:52:02.842Z,0.00
2019-02-19T00:53:03.021Z,0.00
2019-02-19T00:54:02.145Z,0.00
2019-02-19T00:55:02.518Z,0.00
2019-02-19T00:56:02.169Z,0.00
2019-02-19T00:57:02.004Z,0.00
2019-02-19T00:58:05.109Z,0.00
2019-02-19T00:59:02.258Z,0.00
2019-02-19T01:00:04.092Z,0.00
2019-02-19T01:01:04.023Z,0.00
2019-02-19T01:02:02.095Z,0.00
2019-02-19T01:03:02.304Z,0.00
2019-02-19T01:04:17.150Z,0.00
2019-02-19T01:05:04.940Z,0.00
2019-02-19T01:06:02.234Z,0.00
2019-02-19T01:07:02.095Z,0.00
2019-02-19T01:08:02.067Z,0.00
2019-02-19T01:09:02.012Z,0.00
2019-02-19T01:10:06.943Z,0.00
2019-02-19T01:11:02.129Z,0.00
2019-02-19T01:12:02.505Z,0.00
2019-02-19T01:13:02.005Z,0.00
2019-02-19T01:14:01.935Z,0.00
2019-02-19T01:15:01.988Z,0.00
2019-02-19T01:16:01.913Z,0.00
2019-02-19T01:17:01.903Z,0.00
2019-02-19T01:18:01.862Z,0.00
2019-02-19T01:19:02.815Z,0.00
2019-02-19T01:20:01.859Z,0.00
2019-02-19T01:21:02.656Z,0.00
2019-02-19T01:22:02.467Z,0.00
2019-02-19T01:24:10.965Z,0.00
2019-02-19T01:26:00.683Z,0.00
2019-02-19T01:26:55.565Z,0.00
2019-02-19T01:29:18.037Z,0.00
2019-02-19T01:31:38.502Z,0.00
2019-02-19T01:32:38.662Z,0.00
2019-02-19T01:33:39.774Z,0.00
2019-02-19T01:34:38.265Z,0.00
2019-02-19T01:36:39.738Z,0.00
2019-02-19T01:37:38.173Z,0.00
2019-02-19T01:38:39.799Z,0.00
2019-02-19T01:39:38.267Z,0.00
2019-02-19T01:40:38.122Z,0.00
2019-02-19T01:41:38.747Z,0.00
2019-02-19T01:42:38.753Z,0.00
2019-02-19T01:43:38.874Z,0.00
2019-02-19T01:44:38.183Z,0.00
2019-02-19T01:45:41.002Z,0.00
2019-02-19T01:46:37.939Z,0.00
2019-02-19T01:47:38.115Z,0.00
2019-02-19T01:48:38.833Z,0.00
2019-02-19T01:49:38.098Z,0.00
2019-02-19T01:50:40.767Z,0.00
2019-02-19T01:51:41.058Z,0.00
2019-02-19T01:52:38.030Z,0.00
2019-02-19T01:53:40.917Z,0.00
2019-02-19T01:54:37.905Z,0.00
2019-02-19T01:55:37.665Z,0.00
2019-02-19T01:56:37.884Z,0.00
2019-02-19T01:57:40.847Z,0.00
2019-02-19T01:59:37.861Z,0.00
2019-02-19T02:00:38.306Z,0.00
2019-02-19T02:01:37.720Z,0.00
2019-02-19T02:02:38.311Z,0.00
2019-02-19T02:03:40.149Z,0.00
2019-02-19T02:04:42.222Z,0.00
2019-02-19T02:05:37.677Z,0.00
2019-02-19T02:06:38.184Z,0.00
2019-02-19T02:07:39.216Z,0.00
2019-02-19T02:08:38.203Z,0.00
2019-02-19T02:09:39.196Z,0.00
2019-02-19T02:10:38.443Z,0.00
2019-02-19T02:11:38.420Z,0.00
2019-02-19T02:13:37.551Z,0.00
2019-02-19T02:14:42.571Z,0.00
2019-02-19T02:15:48.457Z,0.00
2019-02-19T02:16:39.279Z,0.00
2019-02-19T02:17:37.508Z,0.00
2019-02-19T02:18:40.212Z,0.00
2019-02-19T02:19:40.340Z,0.00
2019-02-19T02:22:02.479Z,0.00
2019-02-19T02:22:59.988Z,0.00
2019-02-19T02:23:59.304Z,0.00
2019-02-19T02:24:59.357Z,0.00
2019-02-19T02:25:59.320Z,0.00
2019-02-19T02:26:59.166Z,0.00
2019-02-19T02:27:59.243Z,0.00
2019-02-19T02:28:59.384Z,0.00
2019-02-19T02:29:59.359Z,0.00
2019-02-19T02:30:59.196Z,0.00
2019-02-19T02:32:01.947Z,0.00
2019-02-19T02:32:59.063Z,0.00
2019-02-19T02:33:59.102Z,0.00
2019-02-19T02:34:59.211Z,0.00
2019-02-19T02:35:59.278Z,0.00
2019-02-19T02:36:59.240Z,0.00
2019-02-19T02:37:59.024Z,0.00
2019-02-19T02:39:00.084Z,0.00
2019-02-19T02:39:59.001Z,0.00
2019-02-19T02:41:01.915Z,0.00
2019-02-19T02:41:59.108Z,0.00
2019-02-19T02:42:59.017Z,0.00
2019-02-19T02:44:01.042Z,0.00
2019-02-19T02:44:59.000Z,0.00
2019-02-19T02:45:58.866Z,0.00
2019-02-19T02:46:58.880Z,0.00
2019-02-19T02:47:59.013Z,0.00
2019-02-19T02:49:01.370Z,0.00
2019-02-19T02:49:58.978Z,0.00
2019-02-19T02:50:58.767Z,0.00
2019-02-19T02:51:58.836Z,0.00
2019-02-19T02:52:59.461Z,0.00
2019-02-19T02:53:58.840Z,0.00
2019-02-19T02:54:58.716Z,0.00
2019-02-19T02:56:59.350Z,0.00
2019-02-19T02:57:58.750Z,0.00
2019-02-19T02:58:58.704Z,0.00
2019-02-19T02:59:58.675Z,0.00
2019-02-19T03:00:58.808Z,0.00
2019-02-19T03:01:58.538Z,0.00
2019-02-19T03:03:00.336Z,0.00
2019-02-19T03:03:58.510Z,0.00
2019-02-19T03:04:58.639Z,0.00
2019-02-19T03:06:05.456Z,0.00
2019-02-19T03:07:03.339Z,0.00
2019-02-19T03:07:58.561Z,0.00
2019-02-19T03:08:58.500Z,0.00
2019-02-19T03:10:00.412Z,0.00
2019-02-19T03:11:19.340Z,0.00
2019-02-19T03:11:58.408Z,0.00
2019-02-19T03:12:58.656Z,0.00
2019-02-19T03:13:58.689Z,0.00
2019-02-19T03:14:58.587Z,0.00
2019-02-19T03:16:02.513Z,0.00
2019-02-19T03:16:58.387Z,0.00
2019-02-19T03:17:58.856Z,0.00
2019-02-19T03:18:58.328Z,0.00
2019-02-19T03:19:58.414Z,0.00
2019-02-19T03:20:59.952Z,0.00
2019-02-19T03:21:58.553Z,0.00
2019-02-19T03:23:00.846Z,0.00
2019-02-19T03:23:58.244Z,0.00
2019-02-19T03:24:58.177Z,0.00
2019-02-19T03:25:58.919Z,0.00
2019-02-19T03:26:59.018Z,0.00
2019-02-19T03:27:58.979Z,0.00
2019-02-19T03:28:58.912Z,0.00
2019-02-19T03:29:58.184Z,0.00
2019-02-19T03:30:59.985Z,0.00
2019-02-19T03:31:58.903Z,0.00
2019-02-19T03:32:58.280Z,0.00
2019-02-19T03:33:58.134Z,0.00
2019-02-19T03:35:58.003Z,0.00
2019-02-19T03:37:00.039Z,0.00
2019-02-19T03:37:58.020Z,0.00
2019-02-19T03:38:57.911Z,0.00
2019-02-19T03:39:57.926Z,0.00
2019-02-19T03:40:57.996Z,0.00
2019-02-19T03:42:00.616Z,0.00
2019-02-19T03:42:57.925Z,0.00
2019-02-19T03:43:58.095Z,0.00
2019-02-19T03:44:57.941Z,0.00
2019-02-19T03:45:57.986Z,0.00
2019-02-19T03:47:00.888Z,0.00
2019-02-19T03:47:57.813Z,0.00
2019-02-19T03:48:57.702Z,0.00
2019-02-19T03:49:58.570Z,0.00
2019-02-19T03:51:10.009Z,0.00
2019-02-19T03:52:50.982Z,0.00
2019-02-19T03:53:51.087Z,0.00
2019-02-19T03:54:51.054Z,0.00
2019-02-19T03:55:51.094Z,0.00
2019-02-19T03:56:50.954Z,0.00
2019-02-19T03:57:50.990Z,0.00
2019-02-19T03:58:50.857Z,0.00
2019-02-19T03:59:52.602Z,0.00
2019-02-19T04:00:50.841Z,0.00
2019-02-19T04:01:50.778Z,0.00
2019-02-19T04:02:50.928Z,0.00
2019-02-19T04:03:50.832Z,0.00
2019-02-19T04:04:50.864Z,0.00
2019-02-19T04:05:52.570Z,0.00
2019-02-19T04:06:52.553Z,0.00
2019-02-19T04:07:50.649Z,0.00
2019-02-19T04:08:50.784Z,0.00
2019-02-19T04:09:50.722Z,0.00
2019-02-19T04:10:50.653Z,0.00
2019-02-19T04:11:50.675Z,0.00
2019-02-19T04:12:50.657Z,0.00
2019-02-19T04:13:50.592Z,0.00
2019-02-19T04:14:50.642Z,0.00
2019-02-19T04:15:50.596Z,0.00
2019-02-19T04:16:50.588Z,0.00
2019-02-19T04:17:50.456Z,0.00
2019-02-19T04:18:50.676Z,0.00
2019-02-19T04:19:50.663Z,0.00
2019-02-19T04:20:50.444Z,0.00
2019-02-19T04:21:50.482Z,0.00
2019-02-19T04:22:50.560Z,0.00
2019-02-19T04:23:51.266Z,0.00
2019-02-19T04:24:50.445Z,0.00
2019-02-19T04:25:53.167Z,0.00
2019-02-19T04:26:50.414Z,0.00
2019-02-19T04:27:51.063Z,0.00
2019-02-19T04:28:50.467Z,0.00
2019-02-19T04:29:51.228Z,0.00
2019-02-19T04:30:50.306Z,0.00
2019-02-19T04:31:50.351Z,0.00
2019-02-19T04:32:50.308Z,0.00
2019-02-19T04:33:50.245Z,0.00
2019-02-19T04:34:50.336Z,0.00
2019-02-19T04:35:50.327Z,0.00
2019-02-19T04:36:50.163Z,0.00
2019-02-19T04:37:50.209Z,0.00
2019-02-19T04:38:50.089Z,0.00
2019-02-19T04:39:50.355Z,0.00
2019-02-19T04:40:50.318Z,0.00
2019-02-19T04:41:51.047Z,0.00
2019-02-19T04:42:50.155Z,0.00
2019-02-19T04:43:50.141Z,0.00
2019-02-19T04:44:50.047Z,0.00
2019-02-19T04:45:50.133Z,0.00
2019-02-19T04:46:50.638Z,0.00
2019-02-19T04:47:50.015Z,0.00
2019-02-19T04:48:49.926Z,0.00
2019-02-19T04:49:50.615Z,0.00
2019-02-19T04:50:50.156Z,0.00
2019-02-19T04:51:50.007Z,0.00
2019-02-19T04:52:49.920Z,0.00
2019-02-19T04:53:49.925Z,0.00
2019-02-19T04:54:49.877Z,0.00
2019-02-19T04:55:49.956Z,0.00
2019-02-19T04:56:49.951Z,0.00
2019-02-19T04:57:49.897Z,0.00
2019-02-19T04:58:49.924Z,0.00
2019-02-19T04:59:49.749Z,0.00
2019-02-19T05:00:49.871Z,0.00
2019-02-19T05:01:49.723Z,0.00
2019-02-19T05:02:51.546Z,0.00
2019-02-19T05:03:49.654Z,0.00
2019-02-19T05:04:50.646Z,0.00
2019-02-19T05:05:49.652Z,0.00
2019-02-19T05:06:49.886Z,0.00
2019-02-19T05:07:50.592Z,0.00
2019-02-19T05:08:49.873Z,0.00
2019-02-19T05:09:50.700Z,0.00
2019-02-19T05:10:49.607Z,0.00
2019-02-19T05:11:49.690Z,0.00
2019-02-19T05:12:49.714Z,0.00
2019-02-19T05:13:49.648Z,0.00
2019-02-19T05:14:49.618Z,0.00
2019-02-19T05:15:49.600Z,0.00
2019-02-19T05:16:49.595Z,0.00
2019-02-19T05:17:49.495Z,0.00
2019-02-19T05:18:50.142Z,0.00
2019-02-19T05:19:49.570Z,0.00
2019-02-19T05:20:49.407Z,0.00
2019-02-19T05:21:50.007Z,0.00
2019-02-19T05:22:50.077Z,0.00
2019-02-19T05:23:49.363Z,0.00
2019-02-19T05:24:49.411Z,4.00
2019-02-19T05:25:49.390Z,4.00
2019-02-19T05:26:49.381Z,4.00
2019-02-19T05:27:50.096Z,0.00
2019-02-19T05:28:50.078Z,4.00
2019-02-19T05:29:50.110Z,4.00
2019-02-19T05:30:49.460Z,4.00
2019-02-19T05:31:49.404Z,4.00
2019-02-19T05:32:49.300Z,8.00
2019-02-19T05:33:49.236Z,4.00
2019-02-19T05:34:51.248Z,8.00
2019-02-19T05:35:49.333Z,8.00
2019-02-19T05:36:49.109Z,12.00
2019-02-19T05:37:49.209Z,12.00
2019-02-19T05:38:49.157Z,12.00
2019-02-19T05:39:49.157Z,12.00
2019-02-19T05:40:50.655Z,12.00
2019-02-19T05:41:49.002Z,16.00
2019-02-19T05:42:49.105Z,16.00
2019-02-19T05:43:49.096Z,20.00
2019-02-19T05:44:49.046Z,16.00
2019-02-19T05:45:48.956Z,20.00
2019-02-19T05:46:50.114Z,20.00
2019-02-19T05:47:49.070Z,24.00
2019-02-19T05:48:48.956Z,28.00
2019-02-19T05:49:48.958Z,32.00
2019-02-19T05:50:49.558Z,32.00
2019-02-19T05:51:49.054Z,36.00
2019-02-19T05:52:49.758Z,36.00
2019-02-19T05:53:48.912Z,44.00
2019-02-19T05:54:48.786Z,48.00
2019-02-19T05:55:49.775Z,52.00
2019-02-19T05:56:48.797Z,56.00
2019-02-19T05:57:48.898Z,60.00
2019-02-19T05:58:48.692Z,64.00
2019-02-19T05:59:49.667Z,64.00
2019-02-19T06:00:48.763Z,76.00
2019-02-19T06:01:49.602Z,76.00
2019-02-19T06:02:48.707Z,80.00
2019-02-19T06:03:48.834Z,88.00
2019-02-19T06:04:48.783Z,96.00
2019-02-19T06:05:48.834Z,100.00
2019-02-19T06:06:48.554Z,100.00
2019-02-19T06:07:48.756Z,108.00
2019-02-19T06:08:48.743Z,116.00
2019-02-19T06:09:48.686Z,128.00
2019-02-19T06:10:48.694Z,136.00
2019-02-19T06:11:48.526Z,156.00
2019-02-19T06:12:48.584Z,152.00
2019-02-19T06:13:49.271Z,168.00
2019-02-19T06:14:48.519Z,176.00
2019-02-19T06:15:48.472Z,192.00
2019-02-19T06:16:48.426Z,216.00
2019-02-19T06:17:48.411Z,232.00
2019-02-19T06:18:48.471Z,216.00
2019-02-19T06:19:48.449Z,212.00
2019-02-19T06:20:48.408Z,208.00
2019-02-19T06:21:48.536Z,212.00
2019-02-19T06:22:48.348Z,232.00
2019-02-19T06:23:49.260Z,240.00
2019-02-19T06:24:48.340Z,248.00
2019-02-19T06:25:48.451Z,260.00
2019-02-19T06:26:49.071Z,272.00
2019-02-19T06:27:48.221Z,280.00
2019-02-19T06:28:48.515Z,292.00
2019-02-19T06:29:48.230Z,312.00
2019-02-19T06:30:48.215Z,308.00
2019-02-19T06:31:48.273Z,320.00
2019-02-19T06:32:48.124Z,340.00
2019-02-19T06:33:49.215Z,328.00
2019-02-19T06:34:49.065Z,320.00
2019-02-19T06:35:48.213Z,316.00
2019-02-19T06:36:48.073Z,312.00
2019-02-19T06:37:48.249Z,316.00
2019-02-19T06:38:48.167Z,328.00
2019-02-19T06:39:48.489Z,352.00
2019-02-19T06:40:48.070Z,336.00
2019-02-19T06:41:48.054Z,356.00
2019-02-19T06:42:47.904Z,344.00
2019-02-19T06:43:48.693Z,332.00
2019-02-19T06:44:48.023Z,352.00
2019-02-19T06:46:48.747Z,344.00
2019-02-19T06:47:47.970Z,360.00
2019-02-19T06:48:48.810Z,380.00
2019-02-19T06:49:47.924Z,348.00
2019-02-19T06:50:49.660Z,356.00
2019-02-19T06:51:47.789Z,364.00
2019-02-19T06:52:47.858Z,372.00
2019-02-19T06:53:47.786Z,392.00
2019-02-19T06:54:47.839Z,396.00
2019-02-19T06:55:47.893Z,420.00
2019-02-19T06:56:47.735Z,456.00
2019-02-19T06:57:47.759Z,456.00
2019-02-19T06:58:47.793Z,464.00
2019-02-19T06:59:47.982Z,484.00
2019-02-19T07:00:47.635Z,460.00
2019-02-19T07:01:47.810Z,480.00
2019-02-19T07:02:47.738Z,468.00
2019-02-19T07:03:48.620Z,476.00
2019-02-19T07:04:47.636Z,464.00
2019-02-19T07:05:47.716Z,468.00
2019-02-19T07:06:48.062Z,472.00
2019-02-19T07:07:47.717Z,444.00
2019-02-19T07:08:47.477Z,448.00
2019-02-19T07:09:48.139Z,464.00
2019-02-19T07:10:47.531Z,532.00
2019-02-19T07:11:48.056Z,528.00
2019-02-19T07:12:47.607Z,536.00
2019-02-19T07:13:47.593Z,560.00
2019-02-19T07:14:47.360Z,548.00
2019-02-19T07:15:47.468Z,580.00
2019-02-19T07:16:47.508Z,604.00
2019-02-19T07:17:56.217Z,628.00
2019-02-19T07:21:20.922Z,684.00
2019-02-19T07:22:19.153Z,708.00
2019-02-19T07:24:39.813Z,748.00
2019-02-19T07:25:26.090Z,772.00
2019-02-19T07:26:25.531Z,764.00
2019-02-19T07:27:27.027Z,772.00
2019-02-19T07:28:25.481Z,744.00
2019-02-19T07:29:26.097Z,728.00
2019-02-19T07:30:25.400Z,716.00
2019-02-19T07:31:26.023Z,728.00
2019-02-19T07:32:25.340Z,756.00
2019-02-19T07:33:25.623Z,784.00
2019-02-19T07:34:28.208Z,764.00
2019-02-19T07:35:49.117Z,768.00
2019-02-19T07:36:26.029Z,780.00
2019-02-19T07:37:27.226Z,784.00
2019-02-19T07:38:27.107Z,784.00
2019-02-19T07:39:26.144Z,780.00
2019-02-19T07:40:47.159Z,824.00
2019-02-19T07:41:25.133Z,848.00
2019-02-19T07:42:26.154Z,804.00
2019-02-19T07:43:25.185Z,740.00
2019-02-19T07:44:26.166Z,684.00
2019-02-19T07:45:25.294Z,696.00
2019-02-19T07:46:26.336Z,708.00
2019-02-19T07:47:36.006Z,716.00
2019-02-19T07:48:36.346Z,656.00
2019-02-19T07:49:25.246Z,604.00
2019-02-19T07:50:26.579Z,628.00
2019-02-19T07:51:24.934Z,676.00
2019-02-19T07:52:25.111Z,712.00
2019-02-19T07:55:04.741Z,676.00
2019-02-19T07:56:01.617Z,640.00
2019-02-19T07:57:06.162Z,588.00
2019-02-19T07:58:01.503Z,608.00
2019-02-19T07:59:01.515Z,652.00
2019-02-19T08:00:01.633Z,672.00
2019-02-19T08:01:03.370Z,644.00
2019-02-19T08:02:08.234Z,604.00
2019-02-19T08:03:06.393Z,620.00
2019-02-19T08:04:03.307Z,648.00
2019-02-19T08:05:01.493Z,684.00
2019-02-19T08:06:04.171Z,752.00
2019-02-19T08:07:02.168Z,740.00
2019-02-19T08:08:04.168Z,776.00
2019-02-19T08:09:02.313Z,792.00
2019-02-19T08:10:01.296Z,760.00
2019-02-19T08:11:01.313Z,728.00
2019-02-19T08:12:08.110Z,700.00
2019-02-19T08:13:01.483Z,680.00
2019-02-19T08:14:01.491Z,624.00
2019-02-19T08:15:06.314Z,616.00
2019-02-19T08:16:02.051Z,604.00
2019-02-19T08:17:01.301Z,616.00
2019-02-19T08:18:05.648Z,560.00
2019-02-19T08:19:01.135Z,568.00
2019-02-19T08:20:01.036Z,552.00
2019-02-19T08:21:01.071Z,560.00
2019-02-19T08:22:01.387Z,592.00
2019-02-19T08:23:01.014Z,592.00
2019-02-19T08:24:01.217Z,652.00
2019-02-19T08:25:01.057Z,652.00
2019-02-19T08:26:01.103Z,688.00
2019-02-19T08:27:01.015Z,744.00
2019-02-19T08:28:01.019Z,696.00
2019-02-19T08:29:13.093Z,732.00
2019-02-19T08:30:03.613Z,736.00
2019-02-19T08:31:02.678Z,752.00
2019-02-19T08:32:00.739Z,748.00
2019-02-19T08:33:01.023Z,744.00
2019-02-19T08:34:00.785Z,720.00
2019-02-19T08:35:00.970Z,668.00
2019-02-19T08:36:07.727Z,752.00
2019-02-19T08:37:00.814Z,784.00
2019-02-19T08:38:00.872Z,768.00
2019-02-19T08:40:02.688Z,740.00
2019-02-19T08:41:00.766Z,756.00
2019-02-19T08:42:00.980Z,804.00
2019-02-19T08:43:00.869Z,768.00
2019-02-19T08:44:03.938Z,780.00
2019-02-19T08:45:00.614Z,844.00
2019-02-19T08:46:00.841Z,828.00
2019-02-19T08:47:02.258Z,892.00
2019-02-19T08:48:00.631Z,892.00
2019-02-19T08:49:00.445Z,852.00
2019-02-19T08:51:01.225Z,696.00
2019-02-19T08:52:05.073Z,644.00
2019-02-19T08:53:00.665Z,644.00
2019-02-19T08:54:00.606Z,684.00
2019-02-19T08:55:00.517Z,664.00
2019-02-19T08:56:02.072Z,776.00
2019-02-19T08:57:00.670Z,860.00
2019-02-19T08:58:00.610Z,920.00
2019-02-19T08:59:01.382Z,868.00
2019-02-19T09:00:00.355Z,820.00
2019-02-19T09:01:00.317Z,844.00
2019-02-19T09:02:05.293Z,928.00
2019-02-19T09:03:01.244Z,900.00
2019-02-19T09:04:01.075Z,860.00
2019-02-19T09:05:00.397Z,776.00
2019-02-19T09:06:00.355Z,788.00
2019-02-19T09:07:00.443Z,800.00
2019-02-19T09:08:01.077Z,828.00
2019-02-19T09:09:02.210Z,788.00
2019-02-19T09:10:00.348Z,780.00
2019-02-19T09:11:00.318Z,828.00
2019-02-19T09:12:00.214Z,756.00
2019-02-19T09:13:00.728Z,772.00
2019-02-19T09:14:00.055Z,828.00
2019-02-19T09:15:01.716Z,888.00
2019-02-19T09:16:00.103Z,864.00
2019-02-19T09:17:00.212Z,800.00
2019-02-19T09:18:00.117Z,732.00
2019-02-19T09:19:00.122Z,676.00
2019-02-19T09:20:00.596Z,712.00
2019-02-19T09:21:00.095Z,708.00
2019-02-19T09:22:00.691Z,676.00
2019-02-19T09:23:00.714Z,640.00
2019-02-19T09:24:09.027Z,672.00
2019-02-19T09:24:59.998Z,652.00
2019-02-19T09:26:02.767Z,560.00
2019-02-19T09:27:00.018Z,464.00
2019-02-19T09:28:00.002Z,440.00
2019-02-19T09:29:00.123Z,376.00
2019-02-19T09:29:59.926Z,428.00
2019-02-19T09:31:00.641Z,516.00
2019-02-19T09:31:59.853Z,652.00
2019-02-19T09:33:00.860Z,608.00
2019-02-19T09:34:00.717Z,548.00
2019-02-19T09:35:00.887Z,656.00
2019-02-19T09:36:02.735Z,668.00
2019-02-19T09:36:59.927Z,544.00
2019-02-19T09:38:00.836Z,536.00
2019-02-19T09:38:59.764Z,552.00
2019-02-19T09:39:59.759Z,640.00
2019-02-19T09:41:01.627Z,656.00
2019-02-19T09:42:06.637Z,596.00
2019-02-19T09:43:00.144Z,612.00
2019-02-19T09:43:59.700Z,548.00
2019-02-19T09:45:02.123Z,552.00
2019-02-19T09:46:01.236Z,476.00
2019-02-19T09:47:00.417Z,524.00
2019-02-19T09:48:01.439Z,520.00
2019-02-19T09:49:01.224Z,512.00
2019-02-19T09:49:59.450Z,576.00
2019-02-19T09:50:59.413Z,608.00
2019-02-19T09:52:01.317Z,604.00
2019-02-19T09:53:00.286Z,608.00
2019-02-19T09:54:01.308Z,628.00
2019-02-19T09:54:59.622Z,532.00
2019-02-19T09:55:59.455Z,536.00
2019-02-19T09:57:00.215Z,568.00
2019-02-19T09:57:59.337Z,560.00
2019-02-19T09:58:59.289Z,660.00
2019-02-19T09:59:59.355Z,764.00
2019-02-19T10:00:59.277Z,816.00
2019-02-19T10:02:01.259Z,960.00
2019-02-19T10:02:59.552Z,1040.00
2019-02-19T10:03:59.516Z,972.00
2019-02-19T10:05:00.335Z,768.00
2019-02-19T10:05:59.435Z,708.00
2019-02-19T10:06:59.469Z,588.00
2019-02-19T10:07:59.304Z,568.00
2019-02-19T10:10:01.829Z,468.00
2019-02-19T10:11:00.142Z,420.00
2019-02-19T10:11:59.157Z,384.00
2019-02-19T10:12:59.576Z,372.00
2019-02-19T10:13:59.155Z,404.00
2019-02-19T10:14:58.993Z,464.00
2019-02-19T10:16:00.690Z,528.00
2019-02-19T10:17:01.811Z,600.00
2019-02-19T10:17:59.044Z,700.00
2019-02-19T10:18:59.105Z,704.00
2019-02-19T10:19:59.176Z,640.00
2019-02-19T10:20:59.787Z,596.00
2019-02-19T10:21:59.137Z,512.00
2019-02-19T10:23:01.701Z,524.00
2019-02-19T10:23:59.142Z,552.00
2019-02-19T10:25:20.075Z,636.00
2019-02-19T10:25:58.835Z,688.00
2019-02-19T10:26:58.861Z,744.00
2019-02-19T10:27:59.078Z,876.00
2019-02-19T10:29:09.930Z,956.00
2019-02-19T10:30:03.836Z,888.00
2019-02-19T10:31:00.546Z,1060.00
2019-02-19T10:32:00.785Z,1160.00
2019-02-19T10:32:58.822Z,1364.00
2019-02-19T10:33:59.696Z,1476.00
2019-02-19T10:35:03.683Z,1336.00
2019-02-19T10:35:59.814Z,1172.00
2019-02-19T10:36:58.701Z,1000.00
2019-02-19T10:37:58.828Z,1064.00
2019-02-19T10:38:58.908Z,1280.00
2019-02-19T10:43:55.690Z,948.00
2019-02-19T10:44:36.901Z,740.00
2019-02-19T10:48:08.432Z,588.00
2019-02-19T10:48:48.862Z,844.00
2019-02-19T10:49:48.121Z,1292.00
2019-02-19T10:51:10.802Z,1516.00
2019-02-19T10:51:48.855Z,1592.00
2019-02-19T10:52:48.096Z,1944.00
2019-02-19T10:53:58.977Z,2040.00
2019-02-19T10:54:48.137Z,1848.00
2019-02-19T10:55:48.930Z,1992.00
2019-02-19T10:56:47.874Z,2208.00
2019-02-19T10:57:48.958Z,2204.00
2019-02-19T10:58:48.066Z,1776.00
2019-02-19T10:59:48.881Z,1396.00
2019-02-19T11:00:58.367Z,1320.00
2019-02-19T11:01:50.463Z,1144.00
2019-02-19T11:02:47.889Z,972.00
2019-02-19T11:03:47.710Z,868.00
2019-02-19T11:04:47.912Z,728.00
2019-02-19T11:06:47.915Z,748.00
2019-02-19T11:07:48.293Z,728.00
2019-02-19T11:08:47.778Z,720.00
2019-02-19T11:10:03.416Z,736.00
2019-02-19T11:10:47.605Z,716.00
2019-02-19T11:11:47.562Z,812.00
2019-02-19T11:12:47.627Z,928.00
2019-02-19T11:13:47.562Z,956.00
2019-02-19T11:14:48.792Z,976.00
2019-02-19T11:15:47.435Z,1068.00
2019-02-19T11:16:47.537Z,1020.00
2019-02-19T11:17:49.349Z,1044.00
2019-02-19T11:18:49.441Z,1016.00
2019-02-19T11:19:49.454Z,1148.00
2019-02-19T11:20:47.590Z,1388.00
2019-02-19T11:25:49.014Z,2208.00
2019-02-19T11:26:35.107Z,2044.00
2019-02-19T11:30:44.175Z,2016.00
2019-02-19T11:34:43.320Z,1724.00
2019-02-19T11:35:31.634Z,1452.00
2019-02-19T11:36:36.641Z,1500.00
2019-02-19T11:37:34.474Z,1460.00
2019-02-19T11:38:38.547Z,1448.00
2019-02-19T11:42:51.759Z,1012.00
2019-02-19T11:43:53.560Z,960.00
2019-02-19T11:47:58.720Z,1388.00
2019-02-19T11:51:30.159Z,1048.00
2019-02-19T11:55:56.235Z,1280.00
2019-02-19T11:56:56.993Z,1288.00
2019-02-19T11:58:00.905Z,1248.00
2019-02-19T11:59:56.113Z,1156.00
2019-02-19T12:00:56.929Z,1224.00
2019-02-19T12:01:55.997Z,1204.00
2019-02-19T12:02:58.081Z,1220.00
2019-02-19T12:04:00.996Z,1148.00
2019-02-19T12:05:17.937Z,1092.00
2019-02-19T12:06:02.564Z,984.00
2019-02-19T12:07:16.871Z,792.00
2019-02-19T12:07:55.965Z,844.00
2019-02-19T12:08:56.387Z,944.00
2019-02-19T12:09:55.729Z,896.00
2019-02-19T12:10:55.937Z,820.00
2019-02-19T12:11:55.815Z,748.00
2019-02-19T12:12:55.682Z,800.00
2019-02-19T12:13:58.433Z,752.00
2019-02-19T12:14:58.491Z,652.00
2019-02-19T12:16:00.516Z,668.00
2019-02-19T12:16:56.554Z,712.00
2019-02-19T12:17:55.617Z,732.00
2019-02-19T12:18:58.023Z,756.00
2019-02-19T12:19:58.398Z,808.00
2019-02-19T12:32:09.015Z,604.00
2019-02-19T12:32:53.978Z,608.00
2019-02-19T12:33:54.954Z,652.00
2019-02-19T12:35:14.919Z,640.00
2019-02-19T12:41:49.029Z,656.00
2019-02-19T12:42:02.928Z,708.00
2019-02-19T12:43:11.186Z,688.00
2019-02-19T12:44:00.140Z,672.00
2019-02-19T12:45:00.259Z,652.00
2019-02-19T12:46:05.017Z,628.00
2019-02-19T12:47:00.027Z,604.00
2019-02-19T12:48:10.628Z,548.00
2019-02-19T12:54:22.865Z,540.00
2019-02-19T12:54:50.503Z,692.00
2019-02-19T12:56:48.872Z,800.00
2019-02-19T12:57:46.209Z,924.00
2019-02-19T12:58:43.537Z,1028.00
2019-02-19T12:59:56.513Z,1144.00
2019-02-19T13:00:44.274Z,1180.00
2019-02-19T13:02:46.319Z,892.00
2019-02-19T13:03:43.708Z,772.00
2019-02-19T13:04:45.400Z,740.00
2019-02-19T13:05:43.482Z,812.00
2019-02-19T13:06:44.325Z,852.00
2019-02-19T13:07:54.486Z,852.00
2019-02-19T13:08:44.182Z,928.00
2019-02-19T13:09:45.328Z,880.00
2019-02-19T13:10:43.446Z,812.00
2019-02-19T13:11:43.513Z,844.00
2019-02-19T13:13:43.692Z,892.00
2019-02-19T13:16:43.405Z,1028.00
2019-02-19T13:17:43.245Z,1060.00
2019-02-19T13:18:43.196Z,920.00
2019-02-19T13:19:43.250Z,892.00
2019-02-19T13:20:43.905Z,916.00
2019-02-19T13:21:43.296Z,952.00
2019-02-19T13:22:45.773Z,932.00
2019-02-19T13:23:45.856Z,980.00
2019-02-19T13:25:04.337Z,892.00
2019-02-19T13:25:43.219Z,908.00
2019-02-19T13:26:43.156Z,832.00
2019-02-19T13:27:47.852Z,792.00
2019-02-19T13:28:45.889Z,804.00
2019-02-19T13:31:54.377Z,708.00
2019-02-19T13:32:32.370Z,692.00
2019-02-19T13:34:37.957Z,668.00
2019-02-19T13:40:08.756Z,740.00
2019-02-19T13:41:00.407Z,656.00
2019-02-19T13:42:02.119Z,632.00
2019-02-19T13:43:15.138Z,644.00
2019-02-19T13:44:05.229Z,588.00
2019-02-19T13:45:00.230Z,652.00
2019-02-19T13:52:00.656Z,500.00
2019-02-19T13:59:00.006Z,440.00
2019-02-19T13:59:59.880Z,500.00
2019-02-19T14:00:40.663Z,468.00
2019-02-19T14:01:43.491Z,524.00
2019-02-19T14:02:43.530Z,624.00
2019-02-19T14:04:14.699Z,560.00
2019-02-19T14:04:40.618Z,604.00
2019-02-19T14:05:38.777Z,704.00
2019-02-19T14:06:59.667Z,620.00
2019-02-19T14:07:59.666Z,564.00
2019-02-19T14:08:38.703Z,504.00
2019-02-19T14:09:53.213Z,524.00
2019-02-19T14:10:49.027Z,520.00
2019-02-19T14:11:41.094Z,540.00
2019-02-19T14:12:41.048Z,528.00
2019-02-19T14:14:39.098Z,576.00
2019-02-19T14:15:48.999Z,576.00
2019-02-19T14:16:39.149Z,580.00
2019-02-19T14:17:43.055Z,540.00
2019-02-19T14:18:39.029Z,548.00
2019-02-19T14:19:38.515Z,544.00
2019-02-19T14:20:39.035Z,516.00
2019-02-19T14:21:43.061Z,520.00
2019-02-19T14:22:43.160Z,468.00
2019-02-19T14:23:45.126Z,452.00
2019-02-19T14:24:40.039Z,400.00
2019-02-19T14:25:40.215Z,364.00
2019-02-19T14:27:53.105Z,360.00
2019-02-19T14:28:38.315Z,360.00
2019-02-19T14:29:41.062Z,348.00